sensor_id;sensor_type;location;lat;lon;timestamp;P1;durP1;ratioP1;P2;durP2;ratioP2
35667;SDS011;22158;59.280;17.806;2022-10-31T00:00:20;6.03;;;2.70;;
35667;SDS011;22158;59.280;17.806;2022-10-31T00:02:46;6.22;;;2.53;;
35667;SDS011;22158;59.280;17.806;2022-10-31T00:05:12;6.55;;;3.05;;
35667;SDS011;22158;59.280;17.806;2022-10-31T00:07:38;5.75;;;3.00;;
35667;SDS011;22158;59.280;17.806;2022-10-31T00:10:03;5.72;;;2.80;;
35667;SDS011;22158;59.280;17.806;2022-10-31T00:12:30;9.52;;;3.47;;
35667;SDS011;22158;59.280;17.806;2022-10-31T00:14:55;7.60;;;2.80;;
35667;SDS011;22158;59.280;17.806;2022-10-31T00:17:21;5.65;;;2.60;;
35667;SDS011;22158;59.280;17.806;2022-10-31T00:19:46;3.60;;;2.65;;
35667;SDS011;22158;59.280;17.806;2022-10-31T00:22:12;4.93;;;3.15;;
35667;SDS011;22158;59.280;17.806;2022-10-31T00:24:38;5.53;;;3.08;;
35667;SDS011;22158;59.280;17.806;2022-10-31T00:27:03;6.15;;;3.47;;
35667;SDS011;22158;59.280;17.806;2022-10-31T00:29:29;5.28;;;3.30;;
35667;SDS011;22158;59.280;17.806;2022-10-31T00:31:54;5.90;;;3.00;;
35667;SDS011;22158;59.280;17.806;2022-10-31T00:34:20;6.55;;;2.80;;
35667;SDS011;22158;59.280;17.806;2022-10-31T00:36:46;5.88;;;3.08;;
35667;SDS011;22158;59.280;17.806;2022-10-31T00:39:11;7.97;;;3.50;;
35667;SDS011;22158;59.280;17.806;2022-10-31T00:41:37;4.75;;;2.80;;
35667;SDS011;22158;59.280;17.806;2022-10-31T00:44:03;5.18;;;2.97;;
35667;SDS011;22158;59.280;17.806;2022-10-31T00:46:28;6.63;;;2.92;;
35667;SDS011;22158;59.280;17.806;2022-10-31T00:48:54;6.28;;;4.45;;
35667;SDS011;22158;59.280;17.806;2022-10-31T00:51:19;6.53;;;3.10;;
35667;SDS011;22158;59.280;17.806;2022-10-31T00:53:45;9.60;;;5.10;;
35667;SDS011;22158;59.280;17.806;2022-10-31T00:56:11;4.85;;;2.50;;
35667;SDS011;22158;59.280;17.806;2022-10-31T00:58:36;6.03;;;3.30;;
35667;SDS011;22158;59.280;17.806;2022-10-31T01:01:03;8.80;;;3.10;;
35667;SDS011;22158;59.280;17.806;2022-10-31T01:03:30;4.35;;;2.85;;
35667;SDS011;22158;59.280;17.806;2022-10-31T01:08:24;4.97;;;2.53;;
35667;SDS011;22158;59.280;17.806;2022-10-31T01:10:59;6.00;;;2.72;;
35667;SDS011;22158;59.280;17.806;2022-10-31T01:13:25;9.77;;;3.60;;
35667;SDS011;22158;59.280;17.806;2022-10-31T01:15:54;6.85;;;3.47;;
35667;SDS011;22158;59.280;17.806;2022-10-31T01:18:22;9.93;;;2.85;;
35667;SDS011;22158;59.280;17.806;2022-10-31T01:20:56;5.32;;;3.00;;
35667;SDS011;22158;59.280;17.806;2022-10-31T01:23:23;8.77;;;3.00;;
35667;SDS011;22158;59.280;17.806;2022-10-31T01:25:49;9.55;;;3.83;;
35667;SDS011;22158;59.280;17.806;2022-10-31T01:28:14;7.22;;;3.45;;
35667;SDS011;22158;59.280;17.806;2022-10-31T01:30:40;6.38;;;3.50;;
35667;SDS011;22158;59.280;17.806;2022-10-31T01:33:06;5.93;;;2.90;;
35667;SDS011;22158;59.280;17.806;2022-10-31T01:35:31;7.63;;;3.10;;
35667;SDS011;22158;59.280;17.806;2022-10-31T01:37:57;4.82;;;3.30;;
35667;SDS011;22158;59.280;17.806;2022-10-31T01:40:22;8.93;;;2.97;;
35667;SDS011;22158;59.280;17.806;2022-10-31T01:42:48;14.70;;;5.35;;
35667;SDS011;22158;59.280;17.806;2022-10-31T01:45:14;5.60;;;3.67;;
35667;SDS011;22158;59.280;17.806;2022-10-31T01:47:43;6.38;;;2.72;;
35667;SDS011;22158;59.280;17.806;2022-10-31T01:50:13;6.47;;;3.03;;
35667;SDS011;22158;59.280;17.806;2022-10-31T01:52:47;6.03;;;2.67;;
35667;SDS011;22158;59.280;17.806;2022-10-31T01:55:17;4.40;;;2.70;;
35667;SDS011;22158;59.280;17.806;2022-10-31T01:57:55;7.00;;;3.15;;
35667;SDS011;22158;59.280;17.806;2022-10-31T02:00:25;7.22;;;3.40;;
35667;SDS011;22158;59.280;17.806;2022-10-31T02:02:50;4.95;;;3.10;;
35667;SDS011;22158;59.280;17.806;2022-10-31T02:05:21;7.43;;;3.63;;
35667;SDS011;22158;59.280;17.806;2022-10-31T02:07:57;7.32;;;3.13;;
35667;SDS011;22158;59.280;17.806;2022-10-31T02:10:31;8.45;;;4.32;;
35667;SDS011;22158;59.280;17.806;2022-10-31T02:12:58;5.53;;;3.00;;
35667;SDS011;22158;59.280;17.806;2022-10-31T02:15:26;10.23;;;3.10;;
35667;SDS011;22158;59.280;17.806;2022-10-31T02:17:53;13.07;;;3.67;;
35667;SDS011;22158;59.280;17.806;2022-10-31T02:20:19;5.20;;;3.30;;
35667;SDS011;22158;59.280;17.806;2022-10-31T02:25:51;8.85;;;3.45;;
35667;SDS011;22158;59.280;17.806;2022-10-31T02:39:23;10.70;;;3.38;;
35667;SDS011;22158;59.280;17.806;2022-10-31T02:42:13;12.70;;;4.75;;
35667;SDS011;22158;59.280;17.806;2022-10-31T02:47:45;6.40;;;3.28;;
35667;SDS011;22158;59.280;17.806;2022-10-31T02:50:22;11.13;;;3.73;;
35667;SDS011;22158;59.280;17.806;2022-10-31T02:52:53;11.77;;;3.55;;
35667;SDS011;22158;59.280;17.806;2022-10-31T02:57:47;11.07;;;3.20;;
35667;SDS011;22158;59.280;17.806;2022-10-31T03:00:14;6.00;;;3.47;;
35667;SDS011;22158;59.280;17.806;2022-10-31T03:02:46;9.48;;;3.30;;
35667;SDS011;22158;59.280;17.806;2022-10-31T03:08:16;8.15;;;2.95;;
35667;SDS011;22158;59.280;17.806;2022-10-31T03:15:51;8.75;;;3.72;;
35667;SDS011;22158;59.280;17.806;2022-10-31T03:20:57;12.32;;;3.85;;
35667;SDS011;22158;59.280;17.806;2022-10-31T03:23:43;13.48;;;3.40;;
35667;SDS011;22158;59.280;17.806;2022-10-31T03:26:11;9.50;;;3.60;;
35667;SDS011;22158;59.280;17.806;2022-10-31T03:28:46;7.78;;;4.65;;
35667;SDS011;22158;59.280;17.806;2022-10-31T03:31:18;12.57;;;3.53;;
35667;SDS011;22158;59.280;17.806;2022-10-31T03:33:48;11.25;;;4.15;;
35667;SDS011;22158;59.280;17.806;2022-10-31T03:36:17;10.48;;;4.10;;
35667;SDS011;22158;59.280;17.806;2022-10-31T03:38:44;19.65;;;4.32;;
35667;SDS011;22158;59.280;17.806;2022-10-31T03:41:13;13.02;;;4.57;;
35667;SDS011;22158;59.280;17.806;2022-10-31T03:43:46;11.02;;;3.88;;
35667;SDS011;22158;59.280;17.806;2022-10-31T03:46:17;13.30;;;5.60;;
35667;SDS011;22158;59.280;17.806;2022-10-31T03:48:43;16.05;;;3.83;;
35667;SDS011;22158;59.280;17.806;2022-10-31T03:51:14;13.35;;;4.68;;
35667;SDS011;22158;59.280;17.806;2022-10-31T03:56:22;10.32;;;4.05;;
35667;SDS011;22158;59.280;17.806;2022-10-31T03:59:04;9.13;;;4.35;;
35667;SDS011;22158;59.280;17.806;2022-10-31T04:01:34;10.70;;;3.78;;
35667;SDS011;22158;59.280;17.806;2022-10-31T04:04:05;13.98;;;4.35;;
35667;SDS011;22158;59.280;17.806;2022-10-31T04:06:33;16.17;;;4.22;;
35667;SDS011;22158;59.280;17.806;2022-10-31T04:09:02;11.52;;;3.95;;
35667;SDS011;22158;59.280;17.806;2022-10-31T04:11:35;11.05;;;4.03;;
35667;SDS011;22158;59.280;17.806;2022-10-31T04:14:05;11.60;;;3.95;;
35667;SDS011;22158;59.280;17.806;2022-10-31T04:16:31;10.68;;;4.30;;
35667;SDS011;22158;59.280;17.806;2022-10-31T04:18:57;11.40;;;4.50;;
35667;SDS011;22158;59.280;17.806;2022-10-31T04:21:26;10.38;;;3.63;;
35667;SDS011;22158;59.280;17.806;2022-10-31T04:23:53;10.95;;;4.68;;
35667;SDS011;22158;59.280;17.806;2022-10-31T04:26:19;9.45;;;3.78;;
35667;SDS011;22158;59.280;17.806;2022-10-31T04:28:45;10.20;;;4.05;;
35667;SDS011;22158;59.280;17.806;2022-10-31T04:31:11;12.32;;;4.55;;
35667;SDS011;22158;59.280;17.806;2022-10-31T04:33:37;12.65;;;4.20;;
35667;SDS011;22158;59.280;17.806;2022-10-31T04:36:03;13.60;;;4.65;;
35667;SDS011;22158;59.280;17.806;2022-10-31T04:38:32;11.63;;;4.68;;
35667;SDS011;22158;59.280;17.806;2022-10-31T04:40:58;11.02;;;4.68;;
35667;SDS011;22158;59.280;17.806;2022-10-31T04:43:24;14.52;;;5.00;;
35667;SDS011;22158;59.280;17.806;2022-10-31T04:45:49;17.58;;;6.63;;
35667;SDS011;22158;59.280;17.806;2022-10-31T04:48:15;17.65;;;5.93;;
35667;SDS011;22158;59.280;17.806;2022-10-31T04:50:40;28.35;;;5.53;;
35667;SDS011;22158;59.280;17.806;2022-10-31T04:53:06;26.77;;;5.75;;
35667;SDS011;22158;59.280;17.806;2022-10-31T04:55:32;13.35;;;5.07;;
35667;SDS011;22158;59.280;17.806;2022-10-31T04:57:58;20.38;;;5.05;;
35667;SDS011;22158;59.280;17.806;2022-10-31T05:00:23;18.52;;;5.95;;
35667;SDS011;22158;59.280;17.806;2022-10-31T05:02:56;24.02;;;5.47;;
35667;SDS011;22158;59.280;17.806;2022-10-31T05:05:23;15.75;;;5.97;;
35667;SDS011;22158;59.280;17.806;2022-10-31T05:07:51;14.48;;;4.30;;
35667;SDS011;22158;59.280;17.806;2022-10-31T05:10:19;14.63;;;4.35;;
35667;SDS011;22158;59.280;17.806;2022-10-31T05:12:48;18.90;;;4.93;;
35667;SDS011;22158;59.280;17.806;2022-10-31T05:17:44;20.30;;;4.70;;
35667;SDS011;22158;59.280;17.806;2022-10-31T05:20:10;15.13;;;3.92;;
35667;SDS011;22158;59.280;17.806;2022-10-31T05:22:36;23.40;;;4.68;;
35667;SDS011;22158;59.280;17.806;2022-10-31T05:25:06;17.83;;;4.10;;
35667;SDS011;22158;59.280;17.806;2022-10-31T05:27:32;24.10;;;4.88;;
35667;SDS011;22158;59.280;17.806;2022-10-31T05:29:57;28.67;;;4.82;;
35667;SDS011;22158;59.280;17.806;2022-10-31T05:32:23;17.75;;;4.53;;
35667;SDS011;22158;59.280;17.806;2022-10-31T05:34:49;26.63;;;4.65;;
35667;SDS011;22158;59.280;17.806;2022-10-31T05:37:14;27.27;;;5.07;;
35667;SDS011;22158;59.280;17.806;2022-10-31T05:39:40;25.50;;;6.47;;
35667;SDS011;22158;59.280;17.806;2022-10-31T05:42:05;16.20;;;4.43;;
35667;SDS011;22158;59.280;17.806;2022-10-31T05:44:31;24.85;;;4.93;;
35667;SDS011;22158;59.280;17.806;2022-10-31T05:46:57;22.80;;;5.10;;
35667;SDS011;22158;59.280;17.806;2022-10-31T05:49:22;27.42;;;5.80;;
35667;SDS011;22158;59.280;17.806;2022-10-31T05:51:48;27.67;;;5.72;;
35667;SDS011;22158;59.280;17.806;2022-10-31T05:54:14;30.85;;;5.47;;
35667;SDS011;22158;59.280;17.806;2022-10-31T05:56:39;39.60;;;7.22;;
35667;SDS011;22158;59.280;17.806;2022-10-31T05:59:05;51.28;;;7.00;;
35667;SDS011;22158;59.280;17.806;2022-10-31T06:01:30;63.53;;;8.43;;
35667;SDS011;22158;59.280;17.806;2022-10-31T06:03:56;16.63;;;5.97;;
35667;SDS011;22158;59.280;17.806;2022-10-31T06:06:22;32.67;;;6.45;;
35667;SDS011;22158;59.280;17.806;2022-10-31T06:08:47;19.65;;;6.28;;
35667;SDS011;22158;59.280;17.806;2022-10-31T06:11:13;24.55;;;6.40;;
35667;SDS011;22158;59.280;17.806;2022-10-31T06:13:38;28.92;;;6.70;;
35667;SDS011;22158;59.280;17.806;2022-10-31T06:16:04;25.95;;;6.00;;
35667;SDS011;22158;59.280;17.806;2022-10-31T06:18:30;37.50;;;6.72;;
35667;SDS011;22158;59.280;17.806;2022-10-31T06:20:55;26.77;;;6.50;;
35667;SDS011;22158;59.280;17.806;2022-10-31T06:23:21;20.52;;;6.90;;
35667;SDS011;22158;59.280;17.806;2022-10-31T06:25:50;24.38;;;7.60;;
35667;SDS011;22158;59.280;17.806;2022-10-31T06:28:16;23.55;;;7.03;;
35667;SDS011;22158;59.280;17.806;2022-10-31T06:30:42;15.02;;;7.28;;
35667;SDS011;22158;59.280;17.806;2022-10-31T06:33:07;33.33;;;8.20;;
35667;SDS011;22158;59.280;17.806;2022-10-31T06:35:33;34.47;;;9.38;;
35667;SDS011;22158;59.280;17.806;2022-10-31T06:37:59;28.58;;;8.02;;
35667;SDS011;22158;59.280;17.806;2022-10-31T06:40:25;16.42;;;5.30;;
35667;SDS011;22158;59.280;17.806;2022-10-31T06:43:08;22.60;;;6.95;;
35667;SDS011;22158;59.280;17.806;2022-10-31T06:45:36;13.75;;;5.82;;
35667;SDS011;22158;59.280;17.806;2022-10-31T06:48:02;20.27;;;6.70;;
35667;SDS011;22158;59.280;17.806;2022-10-31T06:50:28;10.60;;;5.18;;
35667;SDS011;22158;59.280;17.806;2022-10-31T06:52:54;20.58;;;6.25;;
35667;SDS011;22158;59.280;17.806;2022-10-31T06:55:22;20.30;;;5.30;;
35667;SDS011;22158;59.280;17.806;2022-10-31T06:57:56;19.15;;;5.95;;
35667;SDS011;22158;59.280;17.806;2022-10-31T07:00:25;14.77;;;5.32;;
35667;SDS011;22158;59.280;17.806;2022-10-31T07:02:56;32.05;;;7.63;;
35667;SDS011;22158;59.280;17.806;2022-10-31T07:05:23;25.70;;;6.45;;
35667;SDS011;22158;59.280;17.806;2022-10-31T07:07:56;27.90;;;7.13;;
35667;SDS011;22158;59.280;17.806;2022-10-31T07:10:25;31.70;;;9.05;;
35667;SDS011;22158;59.280;17.806;2022-10-31T07:12:55;23.08;;;6.10;;
35667;SDS011;22158;59.280;17.806;2022-10-31T07:15:28;15.82;;;6.53;;
35667;SDS011;22158;59.280;17.806;2022-10-31T07:18:01;28.95;;;8.68;;
35667;SDS011;22158;59.280;17.806;2022-10-31T07:20:28;21.77;;;8.30;;
35667;SDS011;22158;59.280;17.806;2022-10-31T07:22:54;26.60;;;9.80;;
35667;SDS011;22158;59.280;17.806;2022-10-31T07:25:20;26.67;;;8.52;;
35667;SDS011;22158;59.280;17.806;2022-10-31T07:27:46;24.38;;;9.18;;
35667;SDS011;22158;59.280;17.806;2022-10-31T07:30:12;22.48;;;9.82;;
35667;SDS011;22158;59.280;17.806;2022-10-31T07:32:39;27.88;;;9.27;;
35667;SDS011;22158;59.280;17.806;2022-10-31T07:35:09;30.88;;;9.95;;
35667;SDS011;22158;59.280;17.806;2022-10-31T07:37:40;29.67;;;10.38;;
35667;SDS011;22158;59.280;17.806;2022-10-31T07:40:06;33.50;;;11.77;;
35667;SDS011;22158;59.280;17.806;2022-10-31T07:42:40;26.05;;;9.82;;
35667;SDS011;22158;59.280;17.806;2022-10-31T07:45:08;31.75;;;9.43;;
35667;SDS011;22158;59.280;17.806;2022-10-31T07:47:45;24.67;;;9.60;;
35667;SDS011;22158;59.280;17.806;2022-10-31T07:50:15;31.08;;;9.85;;
35667;SDS011;22158;59.280;17.806;2022-10-31T07:52:42;25.23;;;9.68;;
35667;SDS011;22158;59.280;17.806;2022-10-31T07:55:08;32.78;;;14.45;;
35667;SDS011;22158;59.280;17.806;2022-10-31T07:57:35;27.95;;;11.23;;
35667;SDS011;22158;59.280;17.806;2022-10-31T08:00:07;32.20;;;12.55;;
35667;SDS011;22158;59.280;17.806;2022-10-31T08:02:34;24.80;;;9.60;;
35667;SDS011;22158;59.280;17.806;2022-10-31T08:05:00;24.85;;;8.40;;
35667;SDS011;22158;59.280;17.806;2022-10-31T08:07:29;30.92;;;9.05;;
35667;SDS011;22158;59.280;17.806;2022-10-31T08:09:55;32.47;;;10.77;;
35667;SDS011;22158;59.280;17.806;2022-10-31T08:12:21;32.38;;;10.30;;
35667;SDS011;22158;59.280;17.806;2022-10-31T08:14:46;27.60;;;10.90;;
35667;SDS011;22158;59.280;17.806;2022-10-31T08:17:12;21.63;;;8.35;;
35667;SDS011;22158;59.280;17.806;2022-10-31T08:19:38;31.65;;;11.73;;
35667;SDS011;22158;59.280;17.806;2022-10-31T08:22:03;26.15;;;8.48;;
35667;SDS011;22158;59.280;17.806;2022-10-31T08:24:29;26.33;;;10.73;;
35667;SDS011;22158;59.280;17.806;2022-10-31T08:26:55;26.92;;;11.40;;
35667;SDS011;22158;59.280;17.806;2022-10-31T08:29:20;23.90;;;9.25;;
35667;SDS011;22158;59.280;17.806;2022-10-31T08:31:46;25.08;;;8.63;;
35667;SDS011;22158;59.280;17.806;2022-10-31T08:34:12;23.83;;;11.35;;
35667;SDS011;22158;59.280;17.806;2022-10-31T08:36:37;23.70;;;10.13;;
35667;SDS011;22158;59.280;17.806;2022-10-31T08:39:03;21.50;;;9.27;;
35667;SDS011;22158;59.280;17.806;2022-10-31T08:41:29;18.30;;;8.32;;
35667;SDS011;22158;59.280;17.806;2022-10-31T08:43:55;19.45;;;9.90;;
35667;SDS011;22158;59.280;17.806;2022-10-31T08:46:21;20.48;;;8.95;;
35667;SDS011;22158;59.280;17.806;2022-10-31T08:48:49;22.33;;;9.93;;
35667;SDS011;22158;59.280;17.806;2022-10-31T08:51:15;20.63;;;9.18;;
35667;SDS011;22158;59.280;17.806;2022-10-31T08:53:41;19.55;;;9.68;;
35667;SDS011;22158;59.280;17.806;2022-10-31T08:56:06;19.52;;;8.70;;
35667;SDS011;22158;59.280;17.806;2022-10-31T08:58:32;16.33;;;9.05;;
35667;SDS011;22158;59.280;17.806;2022-10-31T09:00:59;19.10;;;8.70;;
35667;SDS011;22158;59.280;17.806;2022-10-31T09:03:26;16.70;;;8.90;;
35667;SDS011;22158;59.280;17.806;2022-10-31T09:05:55;17.52;;;8.35;;
35667;SDS011;22158;59.280;17.806;2022-10-31T09:08:22;20.23;;;8.38;;
35667;SDS011;22158;59.280;17.806;2022-10-31T09:10:48;14.35;;;7.57;;
35667;SDS011;22158;59.280;17.806;2022-10-31T09:13:16;16.13;;;8.07;;
35667;SDS011;22158;59.280;17.806;2022-10-31T09:15:46;14.38;;;7.45;;
35667;SDS011;22158;59.280;17.806;2022-10-31T09:18:13;23.13;;;9.43;;
35667;SDS011;22158;59.280;17.806;2022-10-31T09:20:41;18.48;;;8.98;;
35667;SDS011;22158;59.280;17.806;2022-10-31T09:25:43;19.58;;;8.65;;
35667;SDS011;22158;59.280;17.806;2022-10-31T09:28:11;15.18;;;7.50;;
35667;SDS011;22158;59.280;17.806;2022-10-31T09:30:38;14.00;;;8.05;;
35667;SDS011;22158;59.280;17.806;2022-10-31T09:33:05;16.10;;;8.07;;
35667;SDS011;22158;59.280;17.806;2022-10-31T09:38:10;18.10;;;9.18;;
35667;SDS011;22158;59.280;17.806;2022-10-31T09:46:00;15.73;;;7.75;;
35667;SDS011;22158;59.280;17.806;2022-10-31T09:51:40;18.77;;;8.20;;
35667;SDS011;22158;59.280;17.806;2022-10-31T09:56:36;15.45;;;9.23;;
35667;SDS011;22158;59.280;17.806;2022-10-31T09:59:03;17.13;;;9.35;;
35667;SDS011;22158;59.280;17.806;2022-10-31T10:06:57;18.55;;;9.75;;
35667;SDS011;22158;59.280;17.806;2022-10-31T10:09:26;14.95;;;8.85;;
35667;SDS011;22158;59.280;17.806;2022-10-31T10:11:55;14.85;;;9.50;;
35667;SDS011;22158;59.280;17.806;2022-10-31T10:19:53;14.95;;;8.10;;
35667;SDS011;22158;59.280;17.806;2022-10-31T10:22:37;14.32;;;8.68;;
35667;SDS011;22158;59.280;17.806;2022-10-31T10:30:18;17.67;;;8.50;;
35667;SDS011;22158;59.280;17.806;2022-10-31T10:32:56;21.10;;;9.95;;
35667;SDS011;22158;59.280;17.806;2022-10-31T10:38:08;22.85;;;9.13;;
35667;SDS011;22158;59.280;17.806;2022-10-31T10:40:55;18.38;;;8.77;;
35667;SDS011;22158;59.280;17.806;2022-10-31T10:43:30;14.80;;;8.10;;
35667;SDS011;22158;59.280;17.806;2022-10-31T10:51:26;15.48;;;8.20;;
35667;SDS011;22158;59.280;17.806;2022-10-31T10:54:04;16.92;;;7.93;;
35667;SDS011;22158;59.280;17.806;2022-10-31T10:56:49;17.83;;;8.43;;
35667;SDS011;22158;59.280;17.806;2022-10-31T10:59:25;15.40;;;8.52;;
35667;SDS011;22158;59.280;17.806;2022-10-31T11:01:51;12.00;;;6.82;;
35667;SDS011;22158;59.280;17.806;2022-10-31T11:04:29;13.45;;;6.40;;
35667;SDS011;22158;59.280;17.806;2022-10-31T11:09:32;13.05;;;7.43;;
35667;SDS011;22158;59.280;17.806;2022-10-31T11:11:59;13.13;;;7.57;;
35667;SDS011;22158;59.280;17.806;2022-10-31T11:14:30;13.07;;;7.28;;
35667;SDS011;22158;59.280;17.806;2022-10-31T11:17:09;11.48;;;6.93;;
35667;SDS011;22158;59.280;17.806;2022-10-31T11:19:42;13.05;;;6.90;;
35667;SDS011;22158;59.280;17.806;2022-10-31T11:22:13;10.45;;;6.28;;
35667;SDS011;22158;59.280;17.806;2022-10-31T11:24:41;11.23;;;6.15;;
35667;SDS011;22158;59.280;17.806;2022-10-31T11:27:11;14.80;;;7.18;;
35667;SDS011;22158;59.280;17.806;2022-10-31T11:29:40;9.90;;;6.50;;
35667;SDS011;22158;59.280;17.806;2022-10-31T11:32:08;11.93;;;5.88;;
35667;SDS011;22158;59.280;17.806;2022-10-31T11:34:48;15.65;;;6.82;;
35667;SDS011;22158;59.280;17.806;2022-10-31T11:37:24;10.10;;;5.63;;
35667;SDS011;22158;59.280;17.806;2022-10-31T11:40:02;17.42;;;6.68;;
35667;SDS011;22158;59.280;17.806;2022-10-31T11:42:37;11.60;;;6.25;;
35667;SDS011;22158;59.280;17.806;2022-10-31T11:45:13;9.88;;;5.93;;
35667;SDS011;22158;59.280;17.806;2022-10-31T11:47:42;8.65;;;5.82;;
35667;SDS011;22158;59.280;17.806;2022-10-31T11:50:15;15.57;;;6.63;;
35667;SDS011;22158;59.280;17.806;2022-10-31T11:52:46;13.73;;;5.95;;
35667;SDS011;22158;59.280;17.806;2022-10-31T11:57:48;11.13;;;5.95;;
35667;SDS011;22158;59.280;17.806;2022-10-31T12:00:29;11.65;;;6.68;;
35667;SDS011;22158;59.280;17.806;2022-10-31T12:05:46;11.90;;;5.40;;
35667;SDS011;22158;59.280;17.806;2022-10-31T12:08:26;10.35;;;5.80;;
35667;SDS011;22158;59.280;17.806;2022-10-31T12:11:11;10.20;;;6.07;;
35667;SDS011;22158;59.280;17.806;2022-10-31T12:13:51;8.10;;;4.75;;
35667;SDS011;22158;59.280;17.806;2022-10-31T12:16:31;11.60;;;6.32;;
35667;SDS011;22158;59.280;17.806;2022-10-31T12:23:19;8.60;;;5.00;;
35667;SDS011;22158;59.280;17.806;2022-10-31T12:25:55;10.55;;;4.68;;
35667;SDS011;22158;59.280;17.806;2022-10-31T12:34:00;9.63;;;5.18;;
35667;SDS011;22158;59.280;17.806;2022-10-31T12:36:44;20.15;;;5.05;;
35667;SDS011;22158;59.280;17.806;2022-10-31T13:00:03;13.65;;;4.53;;
35667;SDS011;22158;59.280;17.806;2022-10-31T13:07:44;13.93;;;4.60;;
35667;SDS011;22158;59.280;17.806;2022-10-31T13:10:22;7.60;;;4.10;;
35667;SDS011;22158;59.280;17.806;2022-10-31T13:12:54;9.20;;;4.05;;
35667;SDS011;22158;59.280;17.806;2022-10-31T13:15:27;12.70;;;4.90;;
35667;SDS011;22158;59.280;17.806;2022-10-31T13:17:58;11.65;;;4.43;;
35667;SDS011;22158;59.280;17.806;2022-10-31T13:20:29;8.90;;;4.18;;
35667;SDS011;22158;59.280;17.806;2022-10-31T13:23:17;10.38;;;4.55;;
35667;SDS011;22158;59.280;17.806;2022-10-31T13:25:56;7.50;;;4.10;;
35667;SDS011;22158;59.280;17.806;2022-10-31T13:31:13;7.93;;;4.68;;
35667;SDS011;22158;59.280;17.806;2022-10-31T13:33:41;12.13;;;4.63;;
35667;SDS011;22158;59.280;17.806;2022-10-31T13:36:43;9.25;;;3.85;;
35667;SDS011;22158;59.280;17.806;2022-10-31T13:42:20;8.50;;;4.10;;
35667;SDS011;22158;59.280;17.806;2022-10-31T13:44:55;6.30;;;3.75;;
35667;SDS011;22158;59.280;17.806;2022-10-31T13:47:31;10.52;;;3.63;;
35667;SDS011;22158;59.280;17.806;2022-10-31T13:56:03;8.52;;;4.10;;
35667;SDS011;22158;59.280;17.806;2022-10-31T13:58:38;9.15;;;4.10;;
35667;SDS011;22158;59.280;17.806;2022-10-31T14:03:39;8.07;;;4.57;;
35667;SDS011;22158;59.280;17.806;2022-10-31T14:06:07;10.85;;;5.28;;
35667;SDS011;22158;59.280;17.806;2022-10-31T14:08:35;9.23;;;4.05;;
35667;SDS011;22158;59.280;17.806;2022-10-31T14:11:04;7.05;;;3.83;;
35667;SDS011;22158;59.280;17.806;2022-10-31T14:13:51;9.45;;;4.63;;
35667;SDS011;22158;59.280;17.806;2022-10-31T14:16:23;6.65;;;4.00;;
35667;SDS011;22158;59.280;17.806;2022-10-31T14:18:51;6.55;;;4.20;;
35667;SDS011;22158;59.280;17.806;2022-10-31T14:21:31;10.13;;;4.75;;
35667;SDS011;22158;59.280;17.806;2022-10-31T14:26:54;13.95;;;5.35;;
35667;SDS011;22158;59.280;17.806;2022-10-31T14:29:26;8.60;;;4.47;;
35667;SDS011;22158;59.280;17.806;2022-10-31T14:34:41;11.25;;;4.25;;
35667;SDS011;22158;59.280;17.806;2022-10-31T14:42:51;6.20;;;3.30;;
35667;SDS011;22158;59.280;17.806;2022-10-31T14:52:57;10.43;;;4.47;;
35667;SDS011;22158;59.280;17.806;2022-10-31T14:55:27;10.03;;;5.23;;
35667;SDS011;22158;59.280;17.806;2022-10-31T14:57:57;9.45;;;4.55;;
35667;SDS011;22158;59.280;17.806;2022-10-31T15:00:27;11.15;;;4.82;;
35667;SDS011;22158;59.280;17.806;2022-10-31T15:03:00;8.95;;;4.57;;
35667;SDS011;22158;59.280;17.806;2022-10-31T15:05:28;10.23;;;4.15;;
35667;SDS011;22158;59.280;17.806;2022-10-31T15:07:55;11.60;;;4.90;;
35667;SDS011;22158;59.280;17.806;2022-10-31T15:10:27;8.80;;;4.30;;
35667;SDS011;22158;59.280;17.806;2022-10-31T15:12:55;8.77;;;4.65;;
35667;SDS011;22158;59.280;17.806;2022-10-31T15:15:25;7.32;;;4.40;;
35667;SDS011;22158;59.280;17.806;2022-10-31T15:17:53;9.32;;;4.70;;
35667;SDS011;22158;59.280;17.806;2022-10-31T15:20:27;8.27;;;3.50;;
35667;SDS011;22158;59.280;17.806;2022-10-31T15:22:55;8.95;;;4.03;;
35667;SDS011;22158;59.280;17.806;2022-10-31T15:25:23;12.23;;;5.10;;
35667;SDS011;22158;59.280;17.806;2022-10-31T15:27:51;9.82;;;4.97;;
35667;SDS011;22158;59.280;17.806;2022-10-31T15:30:24;9.70;;;4.32;;
35667;SDS011;22158;59.280;17.806;2022-10-31T15:32:52;10.20;;;4.15;;
35667;SDS011;22158;59.280;17.806;2022-10-31T15:37:54;12.35;;;4.90;;
35667;SDS011;22158;59.280;17.806;2022-10-31T15:40:24;8.50;;;4.45;;
35667;SDS011;22158;59.280;17.806;2022-10-31T15:42:55;11.82;;;4.72;;
35667;SDS011;22158;59.280;17.806;2022-10-31T15:45:27;6.63;;;3.85;;
35667;SDS011;22158;59.280;17.806;2022-10-31T15:50:45;9.35;;;4.93;;
35667;SDS011;22158;59.280;17.806;2022-10-31T15:53:15;9.73;;;3.75;;
35667;SDS011;22158;59.280;17.806;2022-10-31T15:55:51;10.57;;;5.55;;
35667;SDS011;22158;59.280;17.806;2022-10-31T15:58:29;5.85;;;3.88;;
35667;SDS011;22158;59.280;17.806;2022-10-31T16:01:02;8.60;;;4.22;;
35667;SDS011;22158;59.280;17.806;2022-10-31T16:03:31;10.10;;;5.35;;
35667;SDS011;22158;59.280;17.806;2022-10-31T16:06:02;10.48;;;6.35;;
35667;SDS011;22158;59.280;17.806;2022-10-31T16:10:55;11.88;;;9.52;;
35667;SDS011;22158;59.280;17.806;2022-10-31T16:13:30;20.15;;;15.80;;
35667;SDS011;22158;59.280;17.806;2022-10-31T16:16:01;26.67;;;19.02;;
35667;SDS011;22158;59.280;17.806;2022-10-31T16:18:38;27.20;;;21.60;;
35667;SDS011;22158;59.280;17.806;2022-10-31T16:21:06;25.55;;;16.50;;
35667;SDS011;22158;59.280;17.806;2022-10-31T16:23:32;17.80;;;9.48;;
35667;SDS011;22158;59.280;17.806;2022-10-31T16:25:58;13.68;;;7.07;;
35667;SDS011;22158;59.280;17.806;2022-10-31T16:28:25;9.82;;;5.88;;
35667;SDS011;22158;59.280;17.806;2022-10-31T16:30:52;7.85;;;5.43;;
35667;SDS011;22158;59.280;17.806;2022-10-31T16:33:23;9.20;;;3.95;;
35667;SDS011;22158;59.280;17.806;2022-10-31T16:35:58;12.65;;;6.55;;
35667;SDS011;22158;59.280;17.806;2022-10-31T16:38:25;12.50;;;5.10;;
35667;SDS011;22158;59.280;17.806;2022-10-31T16:40:51;7.25;;;4.40;;
35667;SDS011;22158;59.280;17.806;2022-10-31T16:43:18;9.93;;;4.43;;
35667;SDS011;22158;59.280;17.806;2022-10-31T16:48:16;10.77;;;5.22;;
35667;SDS011;22158;59.280;17.806;2022-10-31T16:50:44;9.13;;;5.88;;
35667;SDS011;22158;59.280;17.806;2022-10-31T16:53:11;10.27;;;5.70;;
35667;SDS011;22158;59.280;17.806;2022-10-31T16:58:25;15.18;;;7.80;;
35667;SDS011;22158;59.280;17.806;2022-10-31T17:00:54;10.10;;;5.53;;
35667;SDS011;22158;59.280;17.806;2022-10-31T17:03:21;13.98;;;5.60;;
35667;SDS011;22158;59.280;17.806;2022-10-31T17:05:47;12.13;;;5.45;;
35667;SDS011;22158;59.280;17.806;2022-10-31T17:08:12;8.63;;;4.28;;
35667;SDS011;22158;59.280;17.806;2022-10-31T17:10:39;15.13;;;5.38;;
35667;SDS011;22158;59.280;17.806;2022-10-31T17:13:07;12.27;;;6.03;;
35667;SDS011;22158;59.280;17.806;2022-10-31T17:15:41;21.27;;;6.25;;
35667;SDS011;22158;59.280;17.806;2022-10-31T17:18:12;13.15;;;4.90;;
35667;SDS011;22158;59.280;17.806;2022-10-31T17:20:39;12.38;;;5.68;;
35667;SDS011;22158;59.280;17.806;2022-10-31T17:23:06;12.95;;;4.78;;
35667;SDS011;22158;59.280;17.806;2022-10-31T17:25:35;10.40;;;4.53;;